createdAt,value
2023-02-05T00:02:18.271Z,-0.83
2023-02-05T00:07:39.103Z,-0.82
2023-02-05T00:12:59.799Z,-0.88
2023-02-05T00:18:20.608Z,-0.99
2023-02-05T00:23:41.952Z,-1.12
2023-02-05T00:29:02.898Z,-1.11
2023-02-05T00:34:23.821Z,-1.09
2023-02-05T00:39:44.510Z,-1.15
2023-02-05T00:45:07.318Z,-1.16
2023-02-05T00:50:28.856Z,-1.43
2023-02-05T00:55:51.008Z,-1.49
2023-02-05T01:01:14.291Z,-1.46
2023-02-05T01:06:35.550Z,-1.45
2023-02-05T01:11:56.206Z,-1.26
2023-02-05T01:17:17.254Z,-1.33
2023-02-05T01:22:38.176Z,-1.41
2023-02-05T01:28:00.214Z,-1.45
2023-02-05T01:33:21.557Z,-1.34
2023-02-05T01:38:42.143Z,-1.34
2023-02-05T01:44:19.204Z,-1.33
2023-02-05T01:49:43.737Z,-1.42
2023-02-05T01:55:07.630Z,-1.44
2023-02-05T02:00:28.725Z,-1.43
2023-02-05T02:05:49.431Z,-1.48
2023-02-05T02:11:13.749Z,-1.46
2023-02-05T02:16:36.901Z,-1.50
2023-02-05T02:22:29.857Z,-1.39
2023-02-05T02:28:00.214Z,-1.48
2023-02-05T02:33:23.462Z,-1.36
2023-02-05T02:39:28.356Z,-1.34
2023-02-05T02:44:56.833Z,-1.39
2023-02-05T02:50:35.402Z,-1.39
2023-02-05T02:55:58.740Z,-1.47
2023-02-05T03:01:24.201Z,-1.59
2023-02-05T03:06:48.524Z,-1.43
2023-02-05T03:12:09.544Z,-1.29
2023-02-05T03:17:31.967Z,-1.14
2023-02-05T03:22:53.058Z,-1.20
2023-02-05T03:28:14.329Z,-1.26
2023-02-05T03:34:11.498Z,-1.25
2023-02-05T03:39:48.507Z,-1.32
2023-02-05T03:45:21.464Z,-1.43
2023-02-05T03:50:54.339Z,-1.63
2023-02-05T03:56:22.310Z,-1.74
2023-02-05T04:01:45.655Z,-1.73
2023-02-05T04:07:08.106Z,-1.71
2023-02-05T04:12:30.342Z,-1.58
2023-02-05T04:17:51.048Z,-1.42
2023-02-05T04:23:13.164Z,-1.49
2023-02-05T04:28:36.346Z,-1.49
2023-02-05T04:33:59.534Z,-1.51
2023-02-05T04:39:20.836Z,-1.57
2023-02-05T04:44:41.495Z,-1.69
2023-02-05T04:50:02.221Z,-1.94
2023-02-05T04:55:23.117Z,-2.03
2023-02-05T05:00:43.898Z,-2.23
2023-02-05T05:06:05.801Z,-2.33
2023-02-05T05:11:26.645Z,-2.05
2023-02-05T05:16:49.629Z,-2.11
2023-02-05T05:22:10.377Z,-2.26
2023-02-05T05:27:31.199Z,-2.26
2023-02-05T05:32:52.014Z,-2.02
2023-02-05T05:38:12.887Z,-2.19
2023-02-05T05:43:48.736Z,-2.35
2023-02-05T05:49:09.729Z,-2.19
2023-02-05T05:54:30.697Z,-1.77
2023-02-05T05:59:51.220Z,-1.89
2023-02-05T06:05:12.975Z,-2.02
2023-02-05T06:10:34.194Z,-2.07
2023-02-05T06:15:55.048Z,-2.41
2023-02-05T06:21:15.676Z,-2.64
2023-02-05T06:26:36.452Z,-2.67
2023-02-05T06:31:57.054Z,-2.81
2023-02-05T06:37:17.823Z,-2.72
2023-02-05T06:42:38.720Z,-2.78
2023-02-05T06:47:59.692Z,-2.80
2023-02-05T06:53:20.606Z,-2.56
2023-02-05T06:58:41.217Z,-2.35
2023-02-05T07:04:02.300Z,-2.26
2023-02-05T07:09:23.815Z,-2.28
2023-02-05T07:14:44.684Z,-2.34
2023-02-05T07:20:06.246Z,-2.25
2023-02-05T07:25:27.151Z,-2.06
2023-02-05T07:30:49.805Z,-1.97
2023-02-05T07:36:12.219Z,-1.97
2023-02-05T07:41:33.417Z,-1.91
2023-02-05T07:46:54.603Z,-1.81
2023-02-05T07:52:15.836Z,-1.74
2023-02-05T07:57:36.533Z,-1.70
2023-02-05T08:02:57.400Z,-1.75
2023-02-05T08:08:18.326Z,-1.78
2023-02-05T08:13:39.015Z,-1.75
2023-02-05T08:18:59.715Z,-1.56
2023-02-05T08:24:20.495Z,-1.42
2023-02-05T08:29:41.900Z,-1.43
2023-02-05T08:35:02.792Z,-1.47
2023-02-05T08:40:24.289Z,-1.39
2023-02-05T08:45:48.421Z,-1.37
2023-02-05T08:51:10.681Z,-1.41
2023-02-05T08:56:31.900Z,-1.50
2023-02-05T09:01:52.421Z,-1.62
2023-02-05T09:07:13.229Z,-1.63
2023-02-05T09:12:34.241Z,-1.56
2023-02-05T09:17:56.397Z,-1.40
2023-02-05T09:23:18.769Z,-1.28
2023-02-05T09:28:40.268Z,-1.06
2023-02-05T09:34:05.701Z,-1.02
2023-02-05T09:40:11.980Z,-1.09
2023-02-05T09:45:16.372Z,-0.98
2023-02-05T09:50:38.133Z,-1.14
2023-02-05T09:56:01.649Z,-0.99
2023-02-05T10:01:43.701Z,-0.96
2023-02-05T10:07:24.200Z,-0.63
2023-02-05T10:12:51.938Z,-0.57
2023-02-05T10:18:54.521Z,-0.51
2023-02-05T10:24:36.894Z,-0.38
2023-02-05T10:30:04.164Z,-0.54
2023-02-05T10:35:44.418Z,-0.37
2023-02-05T10:41:13.284Z,-0.36
2023-02-05T10:46:36.584Z,-0.19
2023-02-05T10:51:57.418Z,-0.10
2023-02-05T10:57:20.984Z,-0.08
2023-02-05T11:02:47.532Z,-0.14
2023-02-05T11:08:38.951Z,-0.25
2023-02-05T11:14:07.014Z,-0.16
2023-02-05T11:19:29.039Z,0.64
2023-02-05T11:24:50.101Z,0.63
2023-02-05T11:30:49.955Z,0.26
2023-02-05T11:36:21.609Z,0.05
2023-02-05T11:41:48.662Z,0.05
2023-02-05T11:47:09.765Z,0.08
2023-02-05T11:52:37.668Z,0.13
2023-02-05T11:58:01.489Z,0.10
2023-02-05T12:03:22.741Z,0.21
2023-02-05T12:08:52.220Z,-0.06
2023-02-05T12:14:23.027Z,-0.07
2023-02-05T12:19:58.469Z,-0.14
2023-02-05T12:25:27.574Z,-0.04
2023-02-05T12:30:52.549Z,0.03
2023-02-05T12:36:16.197Z,-0.02
2023-02-05T12:41:50.336Z,-0.11
2023-02-05T12:47:29.517Z,-0.07
2023-02-05T12:52:56.244Z,-0.06
2023-02-05T12:58:20.513Z,-0.01
2023-02-05T13:03:48.455Z,0.06
2023-02-05T13:09:17.606Z,0.00
2023-02-05T13:14:43.539Z,-0.14
2023-02-05T13:20:12.332Z,-0.14
2023-02-05T13:26:04.631Z,0.17
2023-02-05T13:31:33.203Z,0.43
2023-02-05T13:37:22.883Z,0.21
2023-02-05T13:43:02.429Z,0.19
2023-02-05T13:48:41.971Z,0.20
2023-02-05T13:54:31.311Z,0.12
2023-02-05T13:59:54.407Z,0.09
2023-02-05T14:05:26.962Z,-0.03
2023-02-05T14:11:00.657Z,-0.06
2023-02-05T14:16:24.530Z,0.04
2023-02-05T14:21:45.107Z,0.01
2023-02-05T14:27:31.344Z,-0.06
2023-02-05T14:32:52.138Z,0.04
2023-02-05T14:38:35.690Z,-0.09
2023-02-05T14:44:30.239Z,-0.16
2023-02-05T14:49:53.225Z,-0.33
2023-02-05T14:55:13.864Z,-0.47
2023-02-05T15:00:44.647Z,-0.26
2023-02-05T15:06:14.032Z,-0.22
2023-02-05T15:11:53.394Z,-0.26
2023-02-05T15:17:16.142Z,-0.21
2023-02-05T15:22:53.731Z,-0.26
2023-02-05T15:28:24.636Z,-0.42
2023-02-05T15:33:56.601Z,-0.49
2023-02-05T15:39:31.243Z,-0.53
2023-02-05T15:44:52.565Z,-0.55
2023-02-05T15:50:14.925Z,-0.52
2023-02-05T15:55:35.858Z,-0.45
2023-02-05T16:00:57.422Z,-0.45
2023-02-05T16:06:20.259Z,-0.28
2023-02-05T16:11:43.051Z,-0.15
2023-02-05T16:17:17.197Z,-0.28
2023-02-05T16:22:42.833Z,-0.41
2023-02-05T16:28:11.242Z,-0.43
2023-02-05T16:33:40.973Z,-0.51
2023-02-05T16:39:04.774Z,-0.58
2023-02-05T16:44:33.236Z,-0.63
2023-02-05T16:49:54.614Z,-0.53
2023-02-05T16:55:42.848Z,-0.54
2023-02-05T17:01:04.274Z,-0.57
2023-02-05T17:06:34.166Z,-0.49
2023-02-05T17:11:54.887Z,-0.44
2023-02-05T17:17:17.459Z,-0.48
2023-02-05T17:22:38.260Z,-0.32
2023-02-05T17:28:01.653Z,-0.19
2023-02-05T17:33:24.483Z,-0.02
2023-02-05T17:38:46.692Z,0.06
2023-02-05T17:44:11.651Z,0.12
2023-02-05T17:49:33.677Z,-0.11
2023-02-05T17:54:54.374Z,-0.29
2023-02-05T18:00:27.680Z,-0.20
2023-02-05T18:05:49.309Z,-0.18
2023-02-05T18:11:10.738Z,0.04
2023-02-05T18:16:31.857Z,0.18
2023-02-05T18:21:53.305Z,0.31
2023-02-05T18:27:14.031Z,0.24
2023-02-05T18:32:34.932Z,-0.03
2023-02-05T18:37:55.644Z,-0.12
2023-02-05T18:43:16.638Z,-0.01
2023-02-05T18:48:40.760Z,-0.19
2023-02-05T18:54:01.717Z,-0.41
2023-02-05T18:59:26.127Z,-0.52
2023-02-05T19:04:52.050Z,-0.53
2023-02-05T19:10:12.751Z,-0.55
2023-02-05T19:15:34.751Z,-0.66
2023-02-05T19:20:55.635Z,-0.87
2023-02-05T19:26:19.318Z,-0.64
2023-02-05T19:31:40.496Z,-0.77
2023-02-05T19:37:01.884Z,-0.77
2023-02-05T19:42:23.111Z,-0.71
2023-02-05T19:47:44.065Z,-0.78
2023-02-05T19:53:05.298Z,-0.83
2023-02-05T19:58:25.938Z,-0.89
2023-02-05T20:03:46.849Z,-0.94
2023-02-05T20:09:10.882Z,-0.90
2023-02-05T20:14:31.600Z,-0.89
2023-02-05T20:19:59.650Z,-0.86
2023-02-05T20:25:27.068Z,-1.04
2023-02-05T20:31:06.241Z,-1.33
2023-02-05T20:36:28.338Z,-1.59
2023-02-05T20:41:51.520Z,-1.49
2023-02-05T20:47:14.567Z,-1.61
2023-02-05T20:52:35.266Z,-1.46
2023-02-05T20:57:56.029Z,-1.49
2023-02-05T21:03:17.060Z,-1.58
2023-02-05T21:08:43.393Z,-1.66
2023-02-05T21:14:06.997Z,-1.73
2023-02-05T21:19:27.977Z,-1.57
2023-02-05T21:24:49.634Z,-1.60
2023-02-05T21:30:11.309Z,-0.79
2023-02-05T21:35:34.535Z,-1.11
2023-02-05T21:40:55.410Z,-1.17
2023-02-05T21:46:16.636Z,-1.28
2023-02-05T21:51:37.746Z,-1.36
2023-02-05T21:56:58.368Z,-1.53
2023-02-05T22:02:19.032Z,-1.45
2023-02-05T22:07:39.958Z,-1.59
2023-02-05T22:13:00.534Z,-1.72
2023-02-05T22:18:21.261Z,-1.71
2023-02-05T22:23:43.885Z,-1.75
2023-02-05T22:29:07.203Z,-1.72
2023-02-05T22:34:28.156Z,-1.76
2023-02-05T22:39:48.877Z,-1.73
2023-02-05T22:45:09.818Z,-1.60
2023-02-05T22:50:30.630Z,-1.64
2023-02-05T22:55:51.274Z,-1.85
2023-02-05T23:01:24.482Z,-1.84
2023-02-05T23:06:45.309Z,-1.78
2023-02-05T23:12:07.103Z,-1.89
2023-02-05T23:17:28.101Z,-1.76
2023-02-05T23:22:48.619Z,-1.67
2023-02-05T23:28:09.547Z,-1.76
2023-02-05T23:33:30.651Z,-1.95
2023-02-05T23:38:51.390Z,-2.10
2023-02-05T23:44:18.259Z,-2.12
2023-02-05T23:49:38.864Z,-2.06
2023-02-05T23:54:59.493Z,-2.21
